sensor_id;sensor_type;location;lat;lon;timestamp;P1;durP1;ratioP1;P2;durP2;ratioP2
54993;SDS011;40891;47.242;8.648;2023-09-19T00:02:17;3.00;;;1.77;;
54993;SDS011;40891;47.242;8.648;2023-09-19T00:04:43;4.90;;;1.42;;
54993;SDS011;40891;47.242;8.648;2023-09-19T00:07:08;1.92;;;1.40;;
54993;SDS011;40891;47.242;8.648;2023-09-19T00:09:34;3.20;;;1.73;;
54993;SDS011;40891;47.242;8.648;2023-09-19T00:12:04;5.20;;;1.70;;
54993;SDS011;40891;47.242;8.648;2023-09-19T00:14:34;7.10;;;1.60;;
54993;SDS011;40891;47.242;8.648;2023-09-19T00:17:00;6.03;;;1.65;;
54993;SDS011;40891;47.242;8.648;2023-09-19T00:19:31;5.18;;;1.90;;
54993;SDS011;40891;47.242;8.648;2023-09-19T00:21:57;7.95;;;1.60;;
54993;SDS011;40891;47.242;8.648;2023-09-19T00:24:22;3.65;;;1.83;;
54993;SDS011;40891;47.242;8.648;2023-09-19T00:26:48;2.35;;;1.60;;
54993;SDS011;40891;47.242;8.648;2023-09-19T00:29:13;8.63;;;1.80;;
54993;SDS011;40891;47.242;8.648;2023-09-19T00:31:43;2.15;;;1.42;;
54993;SDS011;40891;47.242;8.648;2023-09-19T00:34:08;2.35;;;1.27;;
54993;SDS011;40891;47.242;8.648;2023-09-19T00:36:35;4.28;;;1.17;;
54993;SDS011;40891;47.242;8.648;2023-09-19T00:39:01;3.90;;;1.48;;
54993;SDS011;40891;47.242;8.648;2023-09-19T00:41:27;1.63;;;0.95;;
54993;SDS011;40891;47.242;8.648;2023-09-19T00:43:55;1.75;;;1.27;;
54993;SDS011;40891;47.242;8.648;2023-09-19T00:46:20;3.25;;;1.17;;
54993;SDS011;40891;47.242;8.648;2023-09-19T00:48:46;1.17;;;0.95;;
54993;SDS011;40891;47.242;8.648;2023-09-19T00:51:11;3.28;;;1.08;;
54993;SDS011;40891;47.242;8.648;2023-09-19T00:53:38;2.30;;;0.90;;
54993;SDS011;40891;47.242;8.648;2023-09-19T00:56:04;1.20;;;0.85;;
54993;SDS011;40891;47.242;8.648;2023-09-19T00:58:32;1.23;;;1.00;;
54993;SDS011;40891;47.242;8.648;2023-09-19T01:01:00;1.80;;;1.05;;
54993;SDS011;40891;47.242;8.648;2023-09-19T01:03:26;6.47;;;1.15;;
54993;SDS011;40891;47.242;8.648;2023-09-19T01:05:52;2.20;;;1.17;;
54993;SDS011;40891;47.242;8.648;2023-09-19T01:08:17;2.28;;;1.20;;
54993;SDS011;40891;47.242;8.648;2023-09-19T01:10:50;2.30;;;0.90;;
54993;SDS011;40891;47.242;8.648;2023-09-19T01:15:59;1.40;;;1.23;;
54993;SDS011;40891;47.242;8.648;2023-09-19T01:18:35;2.65;;;1.48;;
54993;SDS011;40891;47.242;8.648;2023-09-19T01:21:07;1.63;;;1.00;;
54993;SDS011;40891;47.242;8.648;2023-09-19T01:29:33;3.47;;;1.17;;
54993;SDS011;40891;47.242;8.648;2023-09-19T01:32:06;1.35;;;0.90;;
54993;SDS011;40891;47.242;8.648;2023-09-19T01:34:47;1.63;;;1.05;;
54993;SDS011;40891;47.242;8.648;2023-09-19T01:37:15;1.23;;;1.10;;
54993;SDS011;40891;47.242;8.648;2023-09-19T01:39:50;2.10;;;1.10;;
54993;SDS011;40891;47.242;8.648;2023-09-19T01:51:00;2.30;;;1.20;;
54993;SDS011;40891;47.242;8.648;2023-09-19T01:53:28;3.45;;;1.38;;
54993;SDS011;40891;47.242;8.648;2023-09-19T01:56:00;3.60;;;1.20;;
54993;SDS011;40891;47.242;8.648;2023-09-19T01:58:29;1.80;;;1.10;;
54993;SDS011;40891;47.242;8.648;2023-09-19T02:01:00;1.13;;;0.90;;
54993;SDS011;40891;47.242;8.648;2023-09-19T02:03:26;4.88;;;1.10;;
54993;SDS011;40891;47.242;8.648;2023-09-19T02:05:53;2.17;;;1.15;;
54993;SDS011;40891;47.242;8.648;2023-09-19T02:08:20;1.92;;;1.27;;
54993;SDS011;40891;47.242;8.648;2023-09-19T02:10:50;2.38;;;1.00;;
54993;SDS011;40891;47.242;8.648;2023-09-19T02:13:18;1.42;;;1.10;;
54993;SDS011;40891;47.242;8.648;2023-09-19T02:15:47;1.23;;;0.90;;
54993;SDS011;40891;47.242;8.648;2023-09-19T02:18:13;4.18;;;1.42;;
54993;SDS011;40891;47.242;8.648;2023-09-19T02:20:39;1.73;;;0.90;;
54993;SDS011;40891;47.242;8.648;2023-09-19T02:23:04;1.75;;;1.17;;
54993;SDS011;40891;47.242;8.648;2023-09-19T02:25:30;5.78;;;1.38;;
54993;SDS011;40891;47.242;8.648;2023-09-19T02:27:56;1.42;;;1.00;;
54993;SDS011;40891;47.242;8.648;2023-09-19T02:30:23;1.63;;;0.90;;
54993;SDS011;40891;47.242;8.648;2023-09-19T02:32:51;2.28;;;1.02;;
54993;SDS011;40891;47.242;8.648;2023-09-19T02:35:16;1.33;;;0.98;;
54993;SDS011;40891;47.242;8.648;2023-09-19T02:37:44;1.25;;;0.90;;
54993;SDS011;40891;47.242;8.648;2023-09-19T02:40:10;2.78;;;1.20;;
54993;SDS011;40891;47.242;8.648;2023-09-19T02:42:43;2.00;;;1.08;;
54993;SDS011;40891;47.242;8.648;2023-09-19T02:45:14;2.78;;;1.02;;
54993;SDS011;40891;47.242;8.648;2023-09-19T02:47:43;1.73;;;1.00;;
54993;SDS011;40891;47.242;8.648;2023-09-19T02:50:09;1.58;;;1.10;;
54993;SDS011;40891;47.242;8.648;2023-09-19T02:52:38;2.35;;;1.08;;
54993;SDS011;40891;47.242;8.648;2023-09-19T02:55:03;3.13;;;1.23;;
54993;SDS011;40891;47.242;8.648;2023-09-19T02:57:31;2.33;;;0.80;;
54993;SDS011;40891;47.242;8.648;2023-09-19T02:59:58;1.50;;;0.90;;
54993;SDS011;40891;47.242;8.648;2023-09-19T03:02:25;1.85;;;0.90;;
54993;SDS011;40891;47.242;8.648;2023-09-19T03:04:52;4.65;;;1.02;;
54993;SDS011;40891;47.242;8.648;2023-09-19T03:07:17;1.77;;;0.90;;
54993;SDS011;40891;47.242;8.648;2023-09-19T03:09:42;1.08;;;0.98;;
54993;SDS011;40891;47.242;8.648;2023-09-19T03:12:08;3.55;;;1.10;;
54993;SDS011;40891;47.242;8.648;2023-09-19T03:14:33;2.90;;;1.02;;
54993;SDS011;40891;47.242;8.648;2023-09-19T03:17:00;1.63;;;1.02;;
54993;SDS011;40891;47.242;8.648;2023-09-19T03:19:25;1.27;;;0.98;;
54993;SDS011;40891;47.242;8.648;2023-09-19T03:21:51;1.98;;;0.85;;
54993;SDS011;40891;47.242;8.648;2023-09-19T03:24:16;1.50;;;0.75;;
54993;SDS011;40891;47.242;8.648;2023-09-19T03:26:42;1.40;;;0.93;;
54993;SDS011;40891;47.242;8.648;2023-09-19T03:29:07;2.25;;;1.00;;
54993;SDS011;40891;47.242;8.648;2023-09-19T03:31:33;2.13;;;1.08;;
54993;SDS011;40891;47.242;8.648;2023-09-19T03:34:01;1.88;;;1.15;;
54993;SDS011;40891;47.242;8.648;2023-09-19T03:36:28;3.00;;;0.90;;
54993;SDS011;40891;47.242;8.648;2023-09-19T03:38:54;1.27;;;0.90;;
54993;SDS011;40891;47.242;8.648;2023-09-19T03:41:19;6.32;;;1.00;;
54993;SDS011;40891;47.242;8.648;2023-09-19T03:43:45;1.85;;;1.10;;
54993;SDS011;40891;47.242;8.648;2023-09-19T03:46:10;1.60;;;1.10;;
54993;SDS011;40891;47.242;8.648;2023-09-19T03:48:37;2.50;;;0.95;;
54993;SDS011;40891;47.242;8.648;2023-09-19T03:51:03;4.03;;;0.95;;
54993;SDS011;40891;47.242;8.648;2023-09-19T03:53:28;4.57;;;0.90;;
54993;SDS011;40891;47.242;8.648;2023-09-19T03:55:53;2.80;;;0.80;;
54993;SDS011;40891;47.242;8.648;2023-09-19T03:58:19;1.73;;;1.10;;
54993;SDS011;40891;47.242;8.648;2023-09-19T04:00:45;1.88;;;0.80;;
54993;SDS011;40891;47.242;8.648;2023-09-19T04:03:10;1.38;;;0.80;;
54993;SDS011;40891;47.242;8.648;2023-09-19T04:05:44;1.23;;;1.10;;
54993;SDS011;40891;47.242;8.648;2023-09-19T04:08:09;0.77;;;0.77;;
54993;SDS011;40891;47.242;8.648;2023-09-19T04:10:34;1.45;;;1.00;;
54993;SDS011;40891;47.242;8.648;2023-09-19T04:13:00;4.55;;;1.17;;
54993;SDS011;40891;47.242;8.648;2023-09-19T04:15:26;2.40;;;1.00;;
54993;SDS011;40891;47.242;8.648;2023-09-19T04:17:51;1.50;;;1.00;;
54993;SDS011;40891;47.242;8.648;2023-09-19T04:20:17;1.83;;;0.93;;
54993;SDS011;40891;47.242;8.648;2023-09-19T04:22:44;4.13;;;1.00;;
54993;SDS011;40891;47.242;8.648;2023-09-19T04:25:10;1.90;;;1.05;;
54993;SDS011;40891;47.242;8.648;2023-09-19T04:27:35;1.38;;;1.00;;
54993;SDS011;40891;47.242;8.648;2023-09-19T04:30:00;0.90;;;0.80;;
54993;SDS011;40891;47.242;8.648;2023-09-19T04:32:34;1.20;;;0.80;;
54993;SDS011;40891;47.242;8.648;2023-09-19T04:35:01;2.10;;;1.10;;
54993;SDS011;40891;47.242;8.648;2023-09-19T04:37:30;1.95;;;1.10;;
54993;SDS011;40891;47.242;8.648;2023-09-19T04:39:55;2.05;;;0.95;;
54993;SDS011;40891;47.242;8.648;2023-09-19T04:42:20;5.25;;;1.05;;
54993;SDS011;40891;47.242;8.648;2023-09-19T04:44:46;1.35;;;0.80;;
54993;SDS011;40891;47.242;8.648;2023-09-19T04:47:14;1.73;;;1.33;;
54993;SDS011;40891;47.242;8.648;2023-09-19T04:49:41;3.30;;;0.98;;
54993;SDS011;40891;47.242;8.648;2023-09-19T04:52:06;3.40;;;1.10;;
54993;SDS011;40891;47.242;8.648;2023-09-19T04:54:31;4.28;;;1.15;;
54993;SDS011;40891;47.242;8.648;2023-09-19T04:56:58;5.97;;;1.20;;
54993;SDS011;40891;47.242;8.648;2023-09-19T04:59:24;3.38;;;0.95;;
54993;SDS011;40891;47.242;8.648;2023-09-19T05:01:49;1.05;;;0.88;;
54993;SDS011;40891;47.242;8.648;2023-09-19T05:04:14;4.75;;;1.17;;
54993;SDS011;40891;47.242;8.648;2023-09-19T05:06:40;2.83;;;1.13;;
54993;SDS011;40891;47.242;8.648;2023-09-19T05:09:05;2.22;;;1.05;;
54993;SDS011;40891;47.242;8.648;2023-09-19T05:11:31;2.42;;;0.93;;
54993;SDS011;40891;47.242;8.648;2023-09-19T05:13:56;2.38;;;1.13;;
54993;SDS011;40891;47.242;8.648;2023-09-19T05:16:22;3.80;;;1.00;;
54993;SDS011;40891;47.242;8.648;2023-09-19T05:18:47;1.45;;;0.90;;
54993;SDS011;40891;47.242;8.648;2023-09-19T05:21:13;1.48;;;1.00;;
54993;SDS011;40891;47.242;8.648;2023-09-19T05:23:38;2.47;;;1.00;;
54993;SDS011;40891;47.242;8.648;2023-09-19T05:26:03;2.50;;;0.95;;
54993;SDS011;40891;47.242;8.648;2023-09-19T05:28:30;1.75;;;1.10;;
54993;SDS011;40891;47.242;8.648;2023-09-19T05:30:55;1.27;;;1.00;;
54993;SDS011;40891;47.242;8.648;2023-09-19T05:33:20;1.40;;;0.85;;
54993;SDS011;40891;47.242;8.648;2023-09-19T05:35:47;4.55;;;1.35;;
54993;SDS011;40891;47.242;8.648;2023-09-19T05:38:13;3.70;;;1.30;;
54993;SDS011;40891;47.242;8.648;2023-09-19T05:40:39;4.90;;;1.27;;
54993;SDS011;40891;47.242;8.648;2023-09-19T05:43:07;2.15;;;1.05;;
54993;SDS011;40891;47.242;8.648;2023-09-19T05:45:33;4.55;;;1.42;;
54993;SDS011;40891;47.242;8.648;2023-09-19T05:48:06;6.40;;;1.05;;
54993;SDS011;40891;47.242;8.648;2023-09-19T05:50:33;3.28;;;1.35;;
54993;SDS011;40891;47.242;8.648;2023-09-19T05:52:59;3.45;;;1.00;;
54993;SDS011;40891;47.242;8.648;2023-09-19T05:55:24;3.05;;;1.20;;
54993;SDS011;40891;47.242;8.648;2023-09-19T05:57:53;4.97;;;1.45;;
54993;SDS011;40891;47.242;8.648;2023-09-19T06:00:19;2.63;;;1.15;;
54993;SDS011;40891;47.242;8.648;2023-09-19T06:02:54;3.53;;;1.13;;
54993;SDS011;40891;47.242;8.648;2023-09-19T06:05:20;3.78;;;1.25;;
54993;SDS011;40891;47.242;8.648;2023-09-19T06:07:46;2.50;;;1.20;;
54993;SDS011;40891;47.242;8.648;2023-09-19T06:10:12;2.83;;;1.13;;
54993;SDS011;40891;47.242;8.648;2023-09-19T06:12:38;1.98;;;1.10;;
54993;SDS011;40891;47.242;8.648;2023-09-19T06:15:08;3.58;;;1.30;;
54993;SDS011;40891;47.242;8.648;2023-09-19T06:17:37;3.03;;;1.30;;
54993;SDS011;40891;47.242;8.648;2023-09-19T06:20:06;1.25;;;1.15;;
54993;SDS011;40891;47.242;8.648;2023-09-19T06:22:37;1.95;;;1.25;;
54993;SDS011;40891;47.242;8.648;2023-09-19T06:25:03;5.72;;;1.20;;
54993;SDS011;40891;47.242;8.648;2023-09-19T06:27:29;4.72;;;1.30;;
54993;SDS011;40891;47.242;8.648;2023-09-19T06:29:54;4.95;;;1.58;;
54993;SDS011;40891;47.242;8.648;2023-09-19T06:32:26;2.75;;;1.23;;
54993;SDS011;40891;47.242;8.648;2023-09-19T06:34:52;1.73;;;1.27;;
54993;SDS011;40891;47.242;8.648;2023-09-19T06:37:19;2.00;;;1.15;;
54993;SDS011;40891;47.242;8.648;2023-09-19T06:39:45;2.72;;;1.25;;
54993;SDS011;40891;47.242;8.648;2023-09-19T06:42:13;1.10;;;1.00;;
54993;SDS011;40891;47.242;8.648;2023-09-19T06:44:38;2.53;;;1.20;;
54993;SDS011;40891;47.242;8.648;2023-09-19T06:47:03;1.75;;;1.10;;
54993;SDS011;40891;47.242;8.648;2023-09-19T06:49:29;5.18;;;1.10;;
54993;SDS011;40891;47.242;8.648;2023-09-19T06:51:55;6.40;;;1.27;;
54993;SDS011;40891;47.242;8.648;2023-09-19T06:54:22;1.33;;;1.15;;
54993;SDS011;40891;47.242;8.648;2023-09-19T06:56:47;2.35;;;1.20;;
54993;SDS011;40891;47.242;8.648;2023-09-19T06:59:13;3.13;;;1.08;;
54993;SDS011;40891;47.242;8.648;2023-09-19T07:01:39;2.70;;;1.00;;
54993;SDS011;40891;47.242;8.648;2023-09-19T07:04:05;6.15;;;1.15;;
54993;SDS011;40891;47.242;8.648;2023-09-19T07:06:30;1.83;;;0.95;;
54993;SDS011;40891;47.242;8.648;2023-09-19T07:08:55;2.03;;;0.95;;
54993;SDS011;40891;47.242;8.648;2023-09-19T07:11:21;3.05;;;0.90;;
54993;SDS011;40891;47.242;8.648;2023-09-19T07:13:48;1.30;;;0.82;;
54993;SDS011;40891;47.242;8.648;2023-09-19T07:16:14;1.50;;;1.00;;
54993;SDS011;40891;47.242;8.648;2023-09-19T07:18:52;3.88;;;0.88;;
54993;SDS011;40891;47.242;8.648;2023-09-19T07:21:17;3.72;;;1.10;;
54993;SDS011;40891;47.242;8.648;2023-09-19T07:23:42;2.78;;;1.20;;
54993;SDS011;40891;47.242;8.648;2023-09-19T07:26:08;2.90;;;1.10;;
54993;SDS011;40891;47.242;8.648;2023-09-19T07:28:33;1.95;;;1.10;;
54993;SDS011;40891;47.242;8.648;2023-09-19T07:31:01;2.47;;;1.35;;
54993;SDS011;40891;47.242;8.648;2023-09-19T07:33:30;2.35;;;0.90;;
54993;SDS011;40891;47.242;8.648;2023-09-19T07:35:56;1.42;;;0.98;;
54993;SDS011;40891;47.242;8.648;2023-09-19T07:38:21;1.40;;;0.95;;
54993;SDS011;40891;47.242;8.648;2023-09-19T07:40:47;1.75;;;1.10;;
54993;SDS011;40891;47.242;8.648;2023-09-19T07:43:13;2.15;;;0.90;;
54993;SDS011;40891;47.242;8.648;2023-09-19T07:45:38;1.10;;;1.00;;
54993;SDS011;40891;47.242;8.648;2023-09-19T07:48:04;4.40;;;1.40;;
54993;SDS011;40891;47.242;8.648;2023-09-19T07:50:33;3.08;;;0.95;;
54993;SDS011;40891;47.242;8.648;2023-09-19T07:52:59;2.53;;;1.17;;
54993;SDS011;40891;47.242;8.648;2023-09-19T07:55:24;3.50;;;1.20;;
54993;SDS011;40891;47.242;8.648;2023-09-19T07:57:51;6.50;;;1.30;;
54993;SDS011;40891;47.242;8.648;2023-09-19T08:00:17;2.58;;;1.10;;
54993;SDS011;40891;47.242;8.648;2023-09-19T08:02:42;1.90;;;1.13;;
54993;SDS011;40891;47.242;8.648;2023-09-19T08:05:09;1.98;;;0.90;;
54993;SDS011;40891;47.242;8.648;2023-09-19T08:07:36;3.03;;;1.10;;
54993;SDS011;40891;47.242;8.648;2023-09-19T08:10:03;1.10;;;0.73;;
54993;SDS011;40891;47.242;8.648;2023-09-19T08:12:29;1.10;;;0.98;;
54993;SDS011;40891;47.242;8.648;2023-09-19T08:14:55;2.70;;;1.13;;
54993;SDS011;40891;47.242;8.648;2023-09-19T08:17:20;2.25;;;1.20;;
54993;SDS011;40891;47.242;8.648;2023-09-19T08:19:47;3.30;;;1.10;;
54993;SDS011;40891;47.242;8.648;2023-09-19T08:22:14;2.97;;;1.08;;
54993;SDS011;40891;47.242;8.648;2023-09-19T08:24:42;2.70;;;1.10;;
54993;SDS011;40891;47.242;8.648;2023-09-19T08:27:08;2.75;;;1.10;;
54993;SDS011;40891;47.242;8.648;2023-09-19T08:29:35;1.77;;;1.40;;
54993;SDS011;40891;47.242;8.648;2023-09-19T08:32:00;3.03;;;1.40;;
54993;SDS011;40891;47.242;8.648;2023-09-19T08:34:26;1.42;;;1.10;;
54993;SDS011;40891;47.242;8.648;2023-09-19T08:36:51;2.75;;;1.13;;
54993;SDS011;40891;47.242;8.648;2023-09-19T08:39:26;2.10;;;1.23;;
54993;SDS011;40891;47.242;8.648;2023-09-19T08:41:58;2.08;;;0.95;;
54993;SDS011;40891;47.242;8.648;2023-09-19T08:44:24;4.47;;;1.13;;
54993;SDS011;40891;47.242;8.648;2023-09-19T08:46:51;2.80;;;1.15;;
54993;SDS011;40891;47.242;8.648;2023-09-19T08:49:24;2.05;;;1.02;;
54993;SDS011;40891;47.242;8.648;2023-09-19T08:52:05;1.48;;;1.05;;
54993;SDS011;40891;47.242;8.648;2023-09-19T08:54:41;2.38;;;1.30;;
54993;SDS011;40891;47.242;8.648;2023-09-19T08:57:07;3.05;;;0.90;;
54993;SDS011;40891;47.242;8.648;2023-09-19T08:59:39;3.42;;;1.00;;
54993;SDS011;40891;47.242;8.648;2023-09-19T09:02:12;2.42;;;0.98;;
54993;SDS011;40891;47.242;8.648;2023-09-19T09:04:43;1.92;;;0.90;;
54993;SDS011;40891;47.242;8.648;2023-09-19T09:07:13;2.25;;;1.00;;
54993;SDS011;40891;47.242;8.648;2023-09-19T09:09:39;6.35;;;1.02;;
54993;SDS011;40891;47.242;8.648;2023-09-19T09:12:12;2.92;;;1.15;;
54993;SDS011;40891;47.242;8.648;2023-09-19T09:14:38;3.05;;;1.13;;
54993;SDS011;40891;47.242;8.648;2023-09-19T09:17:05;3.42;;;1.15;;
54993;SDS011;40891;47.242;8.648;2023-09-19T09:19:30;1.55;;;1.00;;
54993;SDS011;40891;47.242;8.648;2023-09-19T09:22:05;1.40;;;0.90;;
54993;SDS011;40891;47.242;8.648;2023-09-19T09:24:34;4.00;;;1.00;;
54993;SDS011;40891;47.242;8.648;2023-09-19T09:27:02;2.03;;;1.00;;
54993;SDS011;40891;47.242;8.648;2023-09-19T09:29:43;2.70;;;1.35;;
54993;SDS011;40891;47.242;8.648;2023-09-19T09:34:49;1.73;;;0.98;;
54993;SDS011;40891;47.242;8.648;2023-09-19T09:37:17;4.47;;;1.38;;
54993;SDS011;40891;47.242;8.648;2023-09-19T09:39:50;2.10;;;1.00;;
54993;SDS011;40891;47.242;8.648;2023-09-19T09:42:34;1.13;;;0.95;;
54993;SDS011;40891;47.242;8.648;2023-09-19T09:47:41;1.40;;;1.00;;
54993;SDS011;40891;47.242;8.648;2023-09-19T09:50:24;2.15;;;1.17;;
54993;SDS011;40891;47.242;8.648;2023-09-19T09:53:22;1.75;;;0.88;;
54993;SDS011;40891;47.242;8.648;2023-09-19T09:55:58;1.63;;;0.98;;
54993;SDS011;40891;47.242;8.648;2023-09-19T09:58:49;1.90;;;1.00;;
54993;SDS011;40891;47.242;8.648;2023-09-19T10:01:20;1.77;;;1.05;;
54993;SDS011;40891;47.242;8.648;2023-09-19T10:03:51;1.65;;;0.82;;
54993;SDS011;40891;47.242;8.648;2023-09-19T10:06:22;2.15;;;1.25;;
54993;SDS011;40891;47.242;8.648;2023-09-19T10:09:09;4.55;;;1.23;;
54993;SDS011;40891;47.242;8.648;2023-09-19T10:11:46;1.83;;;0.88;;
54993;SDS011;40891;47.242;8.648;2023-09-19T10:14:16;0.98;;;0.90;;
54993;SDS011;40891;47.242;8.648;2023-09-19T10:16:48;2.40;;;0.98;;
54993;SDS011;40891;47.242;8.648;2023-09-19T10:19:29;2.63;;;0.80;;
54993;SDS011;40891;47.242;8.648;2023-09-19T10:21:58;1.65;;;0.90;;
54993;SDS011;40891;47.242;8.648;2023-09-19T10:24:26;1.80;;;1.00;;
54993;SDS011;40891;47.242;8.648;2023-09-19T10:26:53;1.88;;;1.02;;
54993;SDS011;40891;47.242;8.648;2023-09-19T10:29:19;1.90;;;0.90;;
54993;SDS011;40891;47.242;8.648;2023-09-19T10:31:49;2.75;;;1.02;;
54993;SDS011;40891;47.242;8.648;2023-09-19T10:34:18;4.90;;;1.00;;
54993;SDS011;40891;47.242;8.648;2023-09-19T10:36:45;5.50;;;1.00;;
54993;SDS011;40891;47.242;8.648;2023-09-19T10:39:12;3.00;;;1.15;;
54993;SDS011;40891;47.242;8.648;2023-09-19T10:41:39;4.00;;;1.27;;
54993;SDS011;40891;47.242;8.648;2023-09-19T10:44:05;1.65;;;1.15;;
54993;SDS011;40891;47.242;8.648;2023-09-19T10:46:31;2.45;;;0.80;;
54993;SDS011;40891;47.242;8.648;2023-09-19T10:48:58;1.50;;;0.88;;
54993;SDS011;40891;47.242;8.648;2023-09-19T10:51:25;1.83;;;1.25;;
54993;SDS011;40891;47.242;8.648;2023-09-19T10:54:10;1.77;;;0.95;;
54993;SDS011;40891;47.242;8.648;2023-09-19T10:56:38;1.52;;;1.00;;
54993;SDS011;40891;47.242;8.648;2023-09-19T10:59:16;1.42;;;1.00;;
54993;SDS011;40891;47.242;8.648;2023-09-19T11:01:50;1.63;;;0.85;;
54993;SDS011;40891;47.242;8.648;2023-09-19T11:04:20;3.22;;;0.98;;
54993;SDS011;40891;47.242;8.648;2023-09-19T11:07:04;3.90;;;1.20;;
54993;SDS011;40891;47.242;8.648;2023-09-19T11:12:08;4.50;;;1.27;;
54993;SDS011;40891;47.242;8.648;2023-09-19T11:14:37;2.03;;;1.15;;
54993;SDS011;40891;47.242;8.648;2023-09-19T11:43:54;3.38;;;1.20;;
54993;SDS011;40891;47.242;8.648;2023-09-19T11:49:16;2.85;;;0.98;;
54993;SDS011;40891;47.242;8.648;2023-09-19T11:51:45;1.77;;;0.90;;
54993;SDS011;40891;47.242;8.648;2023-09-19T11:54:12;0.95;;;0.75;;
54993;SDS011;40891;47.242;8.648;2023-09-19T11:56:43;2.55;;;1.08;;
54993;SDS011;40891;47.242;8.648;2023-09-19T11:59:09;4.72;;;1.20;;
54993;SDS011;40891;47.242;8.648;2023-09-19T12:01:34;2.22;;;0.88;;
54993;SDS011;40891;47.242;8.648;2023-09-19T12:04:06;1.92;;;0.80;;
54993;SDS011;40891;47.242;8.648;2023-09-19T12:06:35;1.40;;;0.70;;
54993;SDS011;40891;47.242;8.648;2023-09-19T12:09:03;1.92;;;0.90;;
54993;SDS011;40891;47.242;8.648;2023-09-19T12:11:32;1.95;;;0.90;;
54993;SDS011;40891;47.242;8.648;2023-09-19T12:14:01;1.60;;;1.15;;
54993;SDS011;40891;47.242;8.648;2023-09-19T12:16:27;1.02;;;0.75;;
54993;SDS011;40891;47.242;8.648;2023-09-19T12:18:55;1.85;;;0.85;;
54993;SDS011;40891;47.242;8.648;2023-09-19T12:21:31;2.03;;;0.90;;
54993;SDS011;40891;47.242;8.648;2023-09-19T12:24:07;1.55;;;0.98;;
54993;SDS011;40891;47.242;8.648;2023-09-19T12:26:47;1.38;;;0.90;;
54993;SDS011;40891;47.242;8.648;2023-09-19T12:29:13;1.70;;;0.75;;
54993;SDS011;40891;47.242;8.648;2023-09-19T12:34:20;3.45;;;1.05;;
54993;SDS011;40891;47.242;8.648;2023-09-19T12:36:47;1.30;;;0.82;;
54993;SDS011;40891;47.242;8.648;2023-09-19T12:39:22;1.60;;;0.80;;
54993;SDS011;40891;47.242;8.648;2023-09-19T12:41:49;2.40;;;1.10;;
54993;SDS011;40891;47.242;8.648;2023-09-19T12:44:15;1.20;;;1.05;;
54993;SDS011;40891;47.242;8.648;2023-09-19T12:46:43;1.25;;;0.80;;
54993;SDS011;40891;47.242;8.648;2023-09-19T12:49:17;2.95;;;0.82;;
54993;SDS011;40891;47.242;8.648;2023-09-19T12:51:43;1.75;;;1.10;;
54993;SDS011;40891;47.242;8.648;2023-09-19T12:54:10;2.20;;;0.85;;
54993;SDS011;40891;47.242;8.648;2023-09-19T12:56:39;1.35;;;0.75;;
54993;SDS011;40891;47.242;8.648;2023-09-19T12:59:06;1.58;;;0.90;;
54993;SDS011;40891;47.242;8.648;2023-09-19T13:01:34;1.55;;;0.70;;
54993;SDS011;40891;47.242;8.648;2023-09-19T13:04:20;1.30;;;0.80;;
54993;SDS011;40891;47.242;8.648;2023-09-19T13:06:54;2.75;;;0.75;;
54993;SDS011;40891;47.242;8.648;2023-09-19T13:09:24;1.02;;;0.80;;
54993;SDS011;40891;47.242;8.648;2023-09-19T13:11:53;1.48;;;0.90;;
54993;SDS011;40891;47.242;8.648;2023-09-19T13:14:20;5.15;;;0.93;;
54993;SDS011;40891;47.242;8.648;2023-09-19T13:19:40;1.40;;;0.70;;
54993;SDS011;40891;47.242;8.648;2023-09-19T13:25:10;1.35;;;0.60;;
54993;SDS011;40891;47.242;8.648;2023-09-19T13:27:43;2.53;;;0.80;;
54993;SDS011;40891;47.242;8.648;2023-09-19T13:30:11;1.23;;;0.73;;
54993;SDS011;40891;47.242;8.648;2023-09-19T13:32:37;1.48;;;0.80;;
54993;SDS011;40891;47.242;8.648;2023-09-19T13:35:03;1.73;;;0.70;;
54993;SDS011;40891;47.242;8.648;2023-09-19T13:37:30;0.73;;;0.60;;
54993;SDS011;40891;47.242;8.648;2023-09-19T13:39:55;1.35;;;0.70;;
54993;SDS011;40891;47.242;8.648;2023-09-19T13:42:22;1.08;;;0.75;;
54993;SDS011;40891;47.242;8.648;2023-09-19T13:44:49;2.25;;;0.70;;
54993;SDS011;40891;47.242;8.648;2023-09-19T13:47:14;1.45;;;0.70;;
54993;SDS011;40891;47.242;8.648;2023-09-19T13:49:40;1.50;;;0.90;;
54993;SDS011;40891;47.242;8.648;2023-09-19T13:52:05;0.77;;;0.50;;
54993;SDS011;40891;47.242;8.648;2023-09-19T13:54:32;2.05;;;0.90;;
54993;SDS011;40891;47.242;8.648;2023-09-19T13:56:57;1.35;;;0.75;;
54993;SDS011;40891;47.242;8.648;2023-09-19T13:59:23;1.00;;;0.73;;
54993;SDS011;40891;47.242;8.648;2023-09-19T14:01:51;0.88;;;0.50;;
54993;SDS011;40891;47.242;8.648;2023-09-19T14:04:18;0.73;;;0.60;;
54993;SDS011;40891;47.242;8.648;2023-09-19T14:06:44;1.02;;;0.63;;
54993;SDS011;40891;47.242;8.648;2023-09-19T14:09:10;1.58;;;0.57;;
54993;SDS011;40891;47.242;8.648;2023-09-19T14:11:36;3.22;;;0.73;;
54993;SDS011;40891;47.242;8.648;2023-09-19T14:14:02;5.13;;;0.60;;
54993;SDS011;40891;47.242;8.648;2023-09-19T14:16:29;1.17;;;0.80;;
54993;SDS011;40891;47.242;8.648;2023-09-19T14:18:56;1.98;;;0.80;;
54993;SDS011;40891;47.242;8.648;2023-09-19T14:21:21;1.17;;;0.70;;
54993;SDS011;40891;47.242;8.648;2023-09-19T14:23:48;1.75;;;0.80;;
54993;SDS011;40891;47.242;8.648;2023-09-19T14:26:14;4.47;;;0.85;;
54993;SDS011;40891;47.242;8.648;2023-09-19T14:28:41;0.63;;;0.57;;
54993;SDS011;40891;47.242;8.648;2023-09-19T14:31:07;2.30;;;0.60;;
54993;SDS011;40891;47.242;8.648;2023-09-19T14:33:33;1.15;;;0.50;;
54993;SDS011;40891;47.242;8.648;2023-09-19T14:36:02;1.10;;;0.63;;
54993;SDS011;40891;47.242;8.648;2023-09-19T14:38:31;0.88;;;0.50;;
54993;SDS011;40891;47.242;8.648;2023-09-19T14:40:59;2.25;;;0.70;;
54993;SDS011;40891;47.242;8.648;2023-09-19T14:43:25;1.17;;;0.70;;
54993;SDS011;40891;47.242;8.648;2023-09-19T14:45:50;1.23;;;0.65;;
54993;SDS011;40891;47.242;8.648;2023-09-19T14:48:15;1.67;;;0.90;;
54993;SDS011;40891;47.242;8.648;2023-09-19T14:50:41;2.45;;;0.60;;
54993;SDS011;40891;47.242;8.648;2023-09-19T14:53:06;2.05;;;0.70;;
54993;SDS011;40891;47.242;8.648;2023-09-19T14:55:36;1.25;;;0.75;;
54993;SDS011;40891;47.242;8.648;2023-09-19T14:58:06;1.58;;;0.63;;
54993;SDS011;40891;47.242;8.648;2023-09-19T15:00:32;2.00;;;0.70;;
54993;SDS011;40891;47.242;8.648;2023-09-19T15:03:00;1.83;;;0.90;;
54993;SDS011;40891;47.242;8.648;2023-09-19T15:05:25;3.00;;;0.75;;
54993;SDS011;40891;47.242;8.648;2023-09-19T15:07:50;2.08;;;0.75;;
54993;SDS011;40891;47.242;8.648;2023-09-19T15:10:15;0.95;;;0.70;;
54993;SDS011;40891;47.242;8.648;2023-09-19T15:12:41;1.63;;;0.70;;
54993;SDS011;40891;47.242;8.648;2023-09-19T15:15:07;1.50;;;0.70;;
54993;SDS011;40891;47.242;8.648;2023-09-19T15:17:33;0.93;;;0.70;;
54993;SDS011;40891;47.242;8.648;2023-09-19T15:19:59;2.00;;;0.80;;
54993;SDS011;40891;47.242;8.648;2023-09-19T15:22:24;1.45;;;1.00;;
54993;SDS011;40891;47.242;8.648;2023-09-19T15:24:50;2.13;;;0.82;;
54993;SDS011;40891;47.242;8.648;2023-09-19T15:27:15;1.25;;;0.70;;
54993;SDS011;40891;47.242;8.648;2023-09-19T15:29:41;1.83;;;0.95;;
54993;SDS011;40891;47.242;8.648;2023-09-19T15:32:07;3.92;;;0.75;;
54993;SDS011;40891;47.242;8.648;2023-09-19T15:34:32;2.67;;;0.90;;
54993;SDS011;40891;47.242;8.648;2023-09-19T15:36:58;2.10;;;0.70;;
54993;SDS011;40891;47.242;8.648;2023-09-19T15:39:23;2.72;;;0.70;;
54993;SDS011;40891;47.242;8.648;2023-09-19T15:41:48;2.03;;;0.80;;
54993;SDS011;40891;47.242;8.648;2023-09-19T15:44:19;1.33;;;0.80;;
54993;SDS011;40891;47.242;8.648;2023-09-19T15:46:45;3.00;;;0.68;;
54993;SDS011;40891;47.242;8.648;2023-09-19T15:49:10;1.92;;;0.65;;
54993;SDS011;40891;47.242;8.648;2023-09-19T15:51:36;3.83;;;0.95;;
54993;SDS011;40891;47.242;8.648;2023-09-19T15:54:06;1.52;;;0.80;;
54993;SDS011;40891;47.242;8.648;2023-09-19T15:56:33;2.47;;;0.80;;